sensor_id;sensor_type;location;lat;lon;timestamp;temperature;humidity
12130;DHT22;6128;59.340;18.040;2023-04-26T00:01:35;5.50;99.90
12130;DHT22;6128;59.340;18.040;2023-04-26T00:04:04;5.50;99.90
12130;DHT22;6128;59.340;18.040;2023-04-26T00:06:33;5.60;99.90
12130;DHT22;6128;59.340;18.040;2023-04-26T00:09:02;5.60;99.90
12130;DHT22;6128;59.340;18.040;2023-04-26T00:11:29;5.70;99.90
12130;DHT22;6128;59.340;18.040;2023-04-26T00:13:57;5.70;99.90
12130;DHT22;6128;59.340;18.040;2023-04-26T00:16:24;5.80;99.90
12130;DHT22;6128;59.340;18.040;2023-04-26T00:18:51;5.90;99.90
12130;DHT22;6128;59.340;18.040;2023-04-26T00:21:20;5.90;99.90
12130;DHT22;6128;59.340;18.040;2023-04-26T00:23:47;5.90;99.90
12130;DHT22;6128;59.340;18.040;2023-04-26T00:26:14;6.00;99.90
12130;DHT22;6128;59.340;18.040;2023-04-26T00:28:41;6.00;99.90
12130;DHT22;6128;59.340;18.040;2023-04-26T00:31:13;6.00;99.90
12130;DHT22;6128;59.340;18.040;2023-04-26T00:33:40;6.00;99.90
12130;DHT22;6128;59.340;18.040;2023-04-26T00:36:07;6.10;99.90
12130;DHT22;6128;59.340;18.040;2023-04-26T00:38:36;6.10;99.90
12130;DHT22;6128;59.340;18.040;2023-04-26T00:41:03;6.10;99.90
12130;DHT22;6128;59.340;18.040;2023-04-26T00:43:30;6.10;99.90
12130;DHT22;6128;59.340;18.040;2023-04-26T00:45:57;6.10;99.90
12130;DHT22;6128;59.340;18.040;2023-04-26T00:48:25;6.20;99.90
12130;DHT22;6128;59.340;18.040;2023-04-26T00:50:52;6.20;99.90
12130;DHT22;6128;59.340;18.040;2023-04-26T00:53:20;6.20;99.90
12130;DHT22;6128;59.340;18.040;2023-04-26T00:55:49;6.20;99.90
12130;DHT22;6128;59.340;18.040;2023-04-26T00:58:17;6.20;99.90
12130;DHT22;6128;59.340;18.040;2023-04-26T01:00:44;6.20;99.90
12130;DHT22;6128;59.340;18.040;2023-04-26T01:03:11;6.20;99.90
12130;DHT22;6128;59.340;18.040;2023-04-26T01:05:38;6.30;99.90
12130;DHT22;6128;59.340;18.040;2023-04-26T01:08:05;6.30;99.90
12130;DHT22;6128;59.340;18.040;2023-04-26T01:10:33;6.40;99.90
12130;DHT22;6128;59.340;18.040;2023-04-26T01:13:02;6.40;99.90
12130;DHT22;6128;59.340;18.040;2023-04-26T01:15:30;6.40;99.90
12130;DHT22;6128;59.340;18.040;2023-04-26T01:17:58;6.40;99.90
12130;DHT22;6128;59.340;18.040;2023-04-26T01:20:25;6.50;99.90
12130;DHT22;6128;59.340;18.040;2023-04-26T01:22:54;6.50;99.90
12130;DHT22;6128;59.340;18.040;2023-04-26T01:25:21;6.50;99.90
12130;DHT22;6128;59.340;18.040;2023-04-26T01:27:48;6.50;99.90
12130;DHT22;6128;59.340;18.040;2023-04-26T01:30:16;6.50;99.90
12130;DHT22;6128;59.340;18.040;2023-04-26T01:32:43;6.50;99.90
12130;DHT22;6128;59.340;18.040;2023-04-26T01:35:10;6.50;99.90
12130;DHT22;6128;59.340;18.040;2023-04-26T01:37:37;6.50;99.90
12130;DHT22;6128;59.340;18.040;2023-04-26T01:40:07;6.50;99.90
12130;DHT22;6128;59.340;18.040;2023-04-26T01:42:35;6.50;99.90
12130;DHT22;6128;59.340;18.040;2023-04-26T01:45:03;6.50;99.90
12130;DHT22;6128;59.340;18.040;2023-04-26T01:47:31;6.50;99.90
12130;DHT22;6128;59.340;18.040;2023-04-26T01:49:58;6.50;99.90
12130;DHT22;6128;59.340;18.040;2023-04-26T01:52:25;6.50;99.90
12130;DHT22;6128;59.340;18.040;2023-04-26T01:54:52;6.50;99.90
12130;DHT22;6128;59.340;18.040;2023-04-26T01:57:26;6.50;99.90
12130;DHT22;6128;59.340;18.040;2023-04-26T01:59:53;6.50;99.90
12130;DHT22;6128;59.340;18.040;2023-04-26T02:02:21;6.50;99.90
12130;DHT22;6128;59.340;18.040;2023-04-26T02:04:48;6.50;99.90
12130;DHT22;6128;59.340;18.040;2023-04-26T02:07:15;6.50;99.90
12130;DHT22;6128;59.340;18.040;2023-04-26T02:09:42;6.60;99.90
12130;DHT22;6128;59.340;18.040;2023-04-26T02:12:11;6.60;99.90
12130;DHT22;6128;59.340;18.040;2023-04-26T02:14:39;6.60;99.90
12130;DHT22;6128;59.340;18.040;2023-04-26T02:17:06;6.60;99.90
12130;DHT22;6128;59.340;18.040;2023-04-26T02:19:35;6.50;99.90
12130;DHT22;6128;59.340;18.040;2023-04-26T02:22:04;6.50;99.90
12130;DHT22;6128;59.340;18.040;2023-04-26T02:24:32;6.60;99.90
12130;DHT22;6128;59.340;18.040;2023-04-26T02:26:59;6.50;99.90
12130;DHT22;6128;59.340;18.040;2023-04-26T02:29:29;6.50;99.90
12130;DHT22;6128;59.340;18.040;2023-04-26T02:31:58;6.50;99.90
12130;DHT22;6128;59.340;18.040;2023-04-26T02:34:25;6.50;99.90
12130;DHT22;6128;59.340;18.040;2023-04-26T02:36:52;6.50;99.90
12130;DHT22;6128;59.340;18.040;2023-04-26T02:39:19;6.60;99.90
12130;DHT22;6128;59.340;18.040;2023-04-26T02:41:46;6.60;99.90
12130;DHT22;6128;59.340;18.040;2023-04-26T02:44:29;6.60;99.90
12130;DHT22;6128;59.340;18.040;2023-04-26T02:46:58;6.60;99.90
12130;DHT22;6128;59.340;18.040;2023-04-26T02:49:25;6.60;99.90
12130;DHT22;6128;59.340;18.040;2023-04-26T02:51:52;6.70;99.90
12130;DHT22;6128;59.340;18.040;2023-04-26T02:54:19;6.70;99.90
12130;DHT22;6128;59.340;18.040;2023-04-26T02:56:47;6.70;99.90
12130;DHT22;6128;59.340;18.040;2023-04-26T02:59:13;6.70;99.90
12130;DHT22;6128;59.340;18.040;2023-04-26T03:01:41;6.70;99.90
12130;DHT22;6128;59.340;18.040;2023-04-26T03:04:09;6.70;99.90
12130;DHT22;6128;59.340;18.040;2023-04-26T03:06:37;6.80;99.90
12130;DHT22;6128;59.340;18.040;2023-04-26T03:09:04;6.80;99.90
12130;DHT22;6128;59.340;18.040;2023-04-26T03:11:31;6.80;99.90
12130;DHT22;6128;59.340;18.040;2023-04-26T03:13:58;6.80;99.90
12130;DHT22;6128;59.340;18.040;2023-04-26T03:16:26;6.90;99.90
12130;DHT22;6128;59.340;18.040;2023-04-26T03:18:54;6.90;99.90
12130;DHT22;6128;59.340;18.040;2023-04-26T03:21:22;6.90;99.90
12130;DHT22;6128;59.340;18.040;2023-04-26T03:23:49;6.90;99.90
12130;DHT22;6128;59.340;18.040;2023-04-26T03:26:16;6.90;99.90
12130;DHT22;6128;59.340;18.040;2023-04-26T03:28:44;6.90;99.90
12130;DHT22;6128;59.340;18.040;2023-04-26T03:31:11;6.90;99.90
12130;DHT22;6128;59.340;18.040;2023-04-26T03:33:38;6.90;99.90
12130;DHT22;6128;59.340;18.040;2023-04-26T03:36:06;6.90;99.90
12130;DHT22;6128;59.340;18.040;2023-04-26T03:38:35;6.90;99.90
12130;DHT22;6128;59.340;18.040;2023-04-26T03:41:02;7.00;99.90
12130;DHT22;6128;59.340;18.040;2023-04-26T03:43:29;7.00;99.90
12130;DHT22;6128;59.340;18.040;2023-04-26T03:45:56;6.90;99.90
12130;DHT22;6128;59.340;18.040;2023-04-26T03:48:24;6.90;99.90
12130;DHT22;6128;59.340;18.040;2023-04-26T03:50:51;6.90;99.90
12130;DHT22;6128;59.340;18.040;2023-04-26T03:53:18;6.90;99.90
12130;DHT22;6128;59.340;18.040;2023-04-26T03:55:47;6.90;99.90
12130;DHT22;6128;59.340;18.040;2023-04-26T03:58:14;6.90;99.90
12130;DHT22;6128;59.340;18.040;2023-04-26T04:00:42;7.00;99.90
12130;DHT22;6128;59.340;18.040;2023-04-26T04:03:09;7.00;99.90
12130;DHT22;6128;59.340;18.040;2023-04-26T04:05:36;7.00;99.90
12130;DHT22;6128;59.340;18.040;2023-04-26T04:08:03;7.00;99.90
12130;DHT22;6128;59.340;18.040;2023-04-26T04:10:30;7.00;99.90
12130;DHT22;6128;59.340;18.040;2023-04-26T04:12:59;7.00;99.90
12130;DHT22;6128;59.340;18.040;2023-04-26T04:15:26;7.00;99.90
12130;DHT22;6128;59.340;18.040;2023-04-26T04:17:53;6.90;99.90
12130;DHT22;6128;59.340;18.040;2023-04-26T04:20:20;6.90;99.90
12130;DHT22;6128;59.340;18.040;2023-04-26T04:22:48;7.00;99.90
12130;DHT22;6128;59.340;18.040;2023-04-26T04:25:15;7.00;99.90
12130;DHT22;6128;59.340;18.040;2023-04-26T04:27:45;7.00;99.90
12130;DHT22;6128;59.340;18.040;2023-04-26T04:30:14;7.00;99.90
12130;DHT22;6128;59.340;18.040;2023-04-26T04:32:41;7.10;99.90
12130;DHT22;6128;59.340;18.040;2023-04-26T04:35:11;7.00;99.90
12130;DHT22;6128;59.340;18.040;2023-04-26T04:37:39;7.10;99.90
12130;DHT22;6128;59.340;18.040;2023-04-26T04:40:07;7.10;99.90
12130;DHT22;6128;59.340;18.040;2023-04-26T04:42:35;7.10;99.90
12130;DHT22;6128;59.340;18.040;2023-04-26T04:45:03;7.10;99.90
12130;DHT22;6128;59.340;18.040;2023-04-26T04:47:32;7.10;99.90
12130;DHT22;6128;59.340;18.040;2023-04-26T04:50:14;7.10;99.90
12130;DHT22;6128;59.340;18.040;2023-04-26T04:52:43;7.10;99.90
12130;DHT22;6128;59.340;18.040;2023-04-26T04:55:10;7.10;99.90
12130;DHT22;6128;59.340;18.040;2023-04-26T04:57:45;7.10;99.90
12130;DHT22;6128;59.340;18.040;2023-04-26T05:00:14;7.10;99.90
12130;DHT22;6128;59.340;18.040;2023-04-26T05:02:43;7.10;99.90
12130;DHT22;6128;59.340;18.040;2023-04-26T05:05:10;7.10;99.90
12130;DHT22;6128;59.340;18.040;2023-04-26T05:07:39;7.10;99.90
12130;DHT22;6128;59.340;18.040;2023-04-26T05:10:06;7.10;99.90
12130;DHT22;6128;59.340;18.040;2023-04-26T05:12:34;7.20;99.90
12130;DHT22;6128;59.340;18.040;2023-04-26T05:15:01;7.30;99.90
12130;DHT22;6128;59.340;18.040;2023-04-26T05:17:29;7.20;99.90
12130;DHT22;6128;59.340;18.040;2023-04-26T05:19:58;7.20;99.90
12130;DHT22;6128;59.340;18.040;2023-04-26T05:22:28;7.20;99.90
12130;DHT22;6128;59.340;18.040;2023-04-26T05:24:55;7.20;99.90
12130;DHT22;6128;59.340;18.040;2023-04-26T05:27:22;7.20;99.90
12130;DHT22;6128;59.340;18.040;2023-04-26T05:29:49;7.20;99.90
12130;DHT22;6128;59.340;18.040;2023-04-26T05:32:16;7.30;99.90
12130;DHT22;6128;59.340;18.040;2023-04-26T05:34:44;7.30;99.90
12130;DHT22;6128;59.340;18.040;2023-04-26T05:37:12;7.40;99.90
12130;DHT22;6128;59.340;18.040;2023-04-26T05:39:40;7.50;99.90
12130;DHT22;6128;59.340;18.040;2023-04-26T05:42:07;7.70;99.90
12130;DHT22;6128;59.340;18.040;2023-04-26T05:44:34;7.80;99.90
12130;DHT22;6128;59.340;18.040;2023-04-26T05:47:01;8.00;99.90
12130;DHT22;6128;59.340;18.040;2023-04-26T05:49:28;8.00;99.90
12130;DHT22;6128;59.340;18.040;2023-04-26T05:51:58;8.10;99.90
12130;DHT22;6128;59.340;18.040;2023-04-26T05:54:26;8.10;99.90
12130;DHT22;6128;59.340;18.040;2023-04-26T05:56:54;8.20;99.90
12130;DHT22;6128;59.340;18.040;2023-04-26T05:59:21;8.30;99.90
12130;DHT22;6128;59.340;18.040;2023-04-26T06:01:48;8.50;99.90
12130;DHT22;6128;59.340;18.040;2023-04-26T06:04:15;8.50;99.90
12130;DHT22;6128;59.340;18.040;2023-04-26T06:06:42;8.50;99.90
12130;DHT22;6128;59.340;18.040;2023-04-26T06:09:09;8.40;99.90
12130;DHT22;6128;59.340;18.040;2023-04-26T06:11:37;8.50;99.90
12130;DHT22;6128;59.340;18.040;2023-04-26T06:14:04;8.60;99.90
12130;DHT22;6128;59.340;18.040;2023-04-26T06:16:31;8.60;99.90
12130;DHT22;6128;59.340;18.040;2023-04-26T06:18:59;8.50;99.90
12130;DHT22;6128;59.340;18.040;2023-04-26T06:21:26;8.50;99.90
12130;DHT22;6128;59.340;18.040;2023-04-26T06:23:53;8.50;99.90
12130;DHT22;6128;59.340;18.040;2023-04-26T06:26:20;8.50;99.90
12130;DHT22;6128;59.340;18.040;2023-04-26T06:28:48;8.50;99.90
12130;DHT22;6128;59.340;18.040;2023-04-26T06:31:16;8.50;99.90
12130;DHT22;6128;59.340;18.040;2023-04-26T06:33:43;8.40;99.90
12130;DHT22;6128;59.340;18.040;2023-04-26T06:36:10;8.30;99.90
12130;DHT22;6128;59.340;18.040;2023-04-26T06:38:38;8.40;99.90
12130;DHT22;6128;59.340;18.040;2023-04-26T06:41:06;8.30;99.90
12130;DHT22;6128;59.340;18.040;2023-04-26T06:43:33;8.20;99.90
12130;DHT22;6128;59.340;18.040;2023-04-26T06:46:02;8.10;99.90
12130;DHT22;6128;59.340;18.040;2023-04-26T06:48:29;8.00;99.90
12130;DHT22;6128;59.340;18.040;2023-04-26T06:50:56;8.00;99.90
12130;DHT22;6128;59.340;18.040;2023-04-26T06:53:23;8.00;99.90
12130;DHT22;6128;59.340;18.040;2023-04-26T06:55:50;7.90;99.90
12130;DHT22;6128;59.340;18.040;2023-04-26T06:58:18;7.90;99.90
12130;DHT22;6128;59.340;18.040;2023-04-26T07:00:45;7.80;99.90
12130;DHT22;6128;59.340;18.040;2023-04-26T07:03:14;7.80;99.90
12130;DHT22;6128;59.340;18.040;2023-04-26T07:05:41;7.90;99.90
12130;DHT22;6128;59.340;18.040;2023-04-26T07:08:08;8.00;99.90
12130;DHT22;6128;59.340;18.040;2023-04-26T07:10:37;8.00;99.90
12130;DHT22;6128;59.340;18.040;2023-04-26T07:13:05;8.00;99.90
12130;DHT22;6128;59.340;18.040;2023-04-26T07:15:32;8.00;99.90
12130;DHT22;6128;59.340;18.040;2023-04-26T07:18:00;7.90;99.90
12130;DHT22;6128;59.340;18.040;2023-04-26T07:20:29;7.80;99.90
12130;DHT22;6128;59.340;18.040;2023-04-26T07:22:56;7.80;99.90
12130;DHT22;6128;59.340;18.040;2023-04-26T07:25:23;7.80;99.90
12130;DHT22;6128;59.340;18.040;2023-04-26T07:27:50;7.80;99.90
12130;DHT22;6128;59.340;18.040;2023-04-26T07:30:17;7.80;99.90
12130;DHT22;6128;59.340;18.040;2023-04-26T07:32:44;7.80;99.90
12130;DHT22;6128;59.340;18.040;2023-04-26T07:35:11;7.80;99.90
12130;DHT22;6128;59.340;18.040;2023-04-26T07:37:42;7.80;99.90
12130;DHT22;6128;59.340;18.040;2023-04-26T07:40:11;7.80;99.90
12130;DHT22;6128;59.340;18.040;2023-04-26T07:42:38;7.80;99.90
12130;DHT22;6128;59.340;18.040;2023-04-26T07:45:06;7.90;99.90
12130;DHT22;6128;59.340;18.040;2023-04-26T07:47:34;8.00;99.90
12130;DHT22;6128;59.340;18.040;2023-04-26T07:50:01;8.00;99.90
12130;DHT22;6128;59.340;18.040;2023-04-26T07:52:28;8.10;99.90
12130;DHT22;6128;59.340;18.040;2023-04-26T07:54:57;8.20;99.90
12130;DHT22;6128;59.340;18.040;2023-04-26T07:57:24;8.20;99.90
12130;DHT22;6128;59.340;18.040;2023-04-26T07:59:51;8.30;99.90
12130;DHT22;6128;59.340;18.040;2023-04-26T08:02:20;8.20;99.90
12130;DHT22;6128;59.340;18.040;2023-04-26T08:04:49;8.20;99.90
12130;DHT22;6128;59.340;18.040;2023-04-26T08:07:17;8.00;99.90
12130;DHT22;6128;59.340;18.040;2023-04-26T08:09:45;7.80;99.90
12130;DHT22;6128;59.340;18.040;2023-04-26T08:12:15;7.70;99.90
12130;DHT22;6128;59.340;18.040;2023-04-26T08:14:42;7.60;99.90
12130;DHT22;6128;59.340;18.040;2023-04-26T08:17:09;7.60;99.90
12130;DHT22;6128;59.340;18.040;2023-04-26T08:19:36;7.50;99.90
12130;DHT22;6128;59.340;18.040;2023-04-26T08:22:04;7.60;99.90
12130;DHT22;6128;59.340;18.040;2023-04-26T08:24:32;7.70;99.90
12130;DHT22;6128;59.340;18.040;2023-04-26T08:26:59;8.00;99.90
12130;DHT22;6128;59.340;18.040;2023-04-26T08:29:27;8.30;99.90
12130;DHT22;6128;59.340;18.040;2023-04-26T08:31:55;8.50;99.90
12130;DHT22;6128;59.340;18.040;2023-04-26T08:34:23;8.60;99.90
12130;DHT22;6128;59.340;18.040;2023-04-26T08:36:50;8.80;99.90
12130;DHT22;6128;59.340;18.040;2023-04-26T08:39:17;9.00;99.90
12130;DHT22;6128;59.340;18.040;2023-04-26T08:41:54;9.20;99.90
12130;DHT22;6128;59.340;18.040;2023-04-26T08:44:23;9.20;99.90
12130;DHT22;6128;59.340;18.040;2023-04-26T08:46:59;9.20;99.90
12130;DHT22;6128;59.340;18.040;2023-04-26T08:49:34;9.00;99.90
12130;DHT22;6128;59.340;18.040;2023-04-26T08:52:03;8.90;99.90
12130;DHT22;6128;59.340;18.040;2023-04-26T08:54:34;8.60;99.90
12130;DHT22;6128;59.340;18.040;2023-04-26T08:57:02;8.30;99.90
12130;DHT22;6128;59.340;18.040;2023-04-26T08:59:30;8.30;99.90
12130;DHT22;6128;59.340;18.040;2023-04-26T09:01:59;8.30;99.90
12130;DHT22;6128;59.340;18.040;2023-04-26T09:04:28;8.50;99.90
12130;DHT22;6128;59.340;18.040;2023-04-26T09:06:59;8.50;99.90
12130;DHT22;6128;59.340;18.040;2023-04-26T09:09:27;8.60;99.90
12130;DHT22;6128;59.340;18.040;2023-04-26T09:11:55;8.60;99.90
12130;DHT22;6128;59.340;18.040;2023-04-26T09:14:22;8.70;99.90
12130;DHT22;6128;59.340;18.040;2023-04-26T09:16:50;8.60;99.90
12130;DHT22;6128;59.340;18.040;2023-04-26T09:19:34;8.60;99.90
12130;DHT22;6128;59.340;18.040;2023-04-26T09:22:02;8.50;99.90
12130;DHT22;6128;59.340;18.040;2023-04-26T09:24:45;8.40;99.90
12130;DHT22;6128;59.340;18.040;2023-04-26T09:27:14;8.60;99.90
12130;DHT22;6128;59.340;18.040;2023-04-26T09:29:56;8.70;99.90
12130;DHT22;6128;59.340;18.040;2023-04-26T09:32:24;8.90;99.90
12130;DHT22;6128;59.340;18.040;2023-04-26T09:34:53;8.90;99.90
12130;DHT22;6128;59.340;18.040;2023-04-26T09:37:20;9.10;99.90
12130;DHT22;6128;59.340;18.040;2023-04-26T09:39:47;9.20;99.90
12130;DHT22;6128;59.340;18.040;2023-04-26T09:42:16;9.40;99.90
12130;DHT22;6128;59.340;18.040;2023-04-26T09:44:44;9.50;99.90
12130;DHT22;6128;59.340;18.040;2023-04-26T09:47:12;9.50;99.90
12130;DHT22;6128;59.340;18.040;2023-04-26T09:49:46;9.50;99.90
12130;DHT22;6128;59.340;18.040;2023-04-26T09:52:17;9.40;99.90
12130;DHT22;6128;59.340;18.040;2023-04-26T09:54:47;9.40;99.90
12130;DHT22;6128;59.340;18.040;2023-04-26T09:57:16;9.50;99.90
12130;DHT22;6128;59.340;18.040;2023-04-26T09:59:45;9.50;99.90
12130;DHT22;6128;59.340;18.040;2023-04-26T10:02:17;9.70;99.90
12130;DHT22;6128;59.340;18.040;2023-04-26T10:04:46;9.60;99.90
12130;DHT22;6128;59.340;18.040;2023-04-26T10:07:16;9.50;99.90
12130;DHT22;6128;59.340;18.040;2023-04-26T10:09:44;9.30;99.90
12130;DHT22;6128;59.340;18.040;2023-04-26T10:12:13;9.40;99.90
12130;DHT22;6128;59.340;18.040;2023-04-26T10:14:41;9.30;99.90
12130;DHT22;6128;59.340;18.040;2023-04-26T10:17:09;9.20;99.90
12130;DHT22;6128;59.340;18.040;2023-04-26T10:19:37;9.10;99.90
12130;DHT22;6128;59.340;18.040;2023-04-26T10:22:08;9.00;99.90
12130;DHT22;6128;59.340;18.040;2023-04-26T10:24:37;9.00;99.90
12130;DHT22;6128;59.340;18.040;2023-04-26T10:27:05;9.10;99.90
12130;DHT22;6128;59.340;18.040;2023-04-26T10:30:05;9.20;99.90
12130;DHT22;6128;59.340;18.040;2023-04-26T10:36:08;9.40;99.90
12130;DHT22;6128;59.340;18.040;2023-04-26T10:38:37;9.50;99.90
12130;DHT22;6128;59.340;18.040;2023-04-26T10:41:36;9.60;99.90
12130;DHT22;6128;59.340;18.040;2023-04-26T10:44:39;9.70;99.90
12130;DHT22;6128;59.340;18.040;2023-04-26T10:47:19;9.80;99.90
12130;DHT22;6128;59.340;18.040;2023-04-26T10:49:46;9.70;99.90
12130;DHT22;6128;59.340;18.040;2023-04-26T10:52:15;9.80;99.90
12130;DHT22;6128;59.340;18.040;2023-04-26T10:54:53;9.90;99.90
12130;DHT22;6128;59.340;18.040;2023-04-26T10:57:24;10.00;99.90
12130;DHT22;6128;59.340;18.040;2023-04-26T11:00:27;10.00;99.90
12130;DHT22;6128;59.340;18.040;2023-04-26T11:03:12;10.20;99.90
12130;DHT22;6128;59.340;18.040;2023-04-26T11:05:53;10.20;99.90
12130;DHT22;6128;59.340;18.040;2023-04-26T11:08:24;10.10;99.90
12130;DHT22;6128;59.340;18.040;2023-04-26T11:11:05;10.10;99.90
12130;DHT22;6128;59.340;18.040;2023-04-26T11:13:37;10.10;99.90
12130;DHT22;6128;59.340;18.040;2023-04-26T11:16:05;10.10;99.90
12130;DHT22;6128;59.340;18.040;2023-04-26T11:18:33;10.00;99.90
12130;DHT22;6128;59.340;18.040;2023-04-26T11:21:01;10.00;99.90
12130;DHT22;6128;59.340;18.040;2023-04-26T11:23:29;10.00;99.90
12130;DHT22;6128;59.340;18.040;2023-04-26T11:25:57;10.10;99.90
12130;DHT22;6128;59.340;18.040;2023-04-26T11:28:27;10.20;99.90
12130;DHT22;6128;59.340;18.040;2023-04-26T11:30:57;10.40;99.90
12130;DHT22;6128;59.340;18.040;2023-04-26T11:33:25;10.60;99.90
12130;DHT22;6128;59.340;18.040;2023-04-26T11:35:53;10.70;99.90
12130;DHT22;6128;59.340;18.040;2023-04-26T11:38:21;10.90;99.90
12130;DHT22;6128;59.340;18.040;2023-04-26T11:40:52;10.90;99.90
12130;DHT22;6128;59.340;18.040;2023-04-26T11:43:21;10.90;99.90
12130;DHT22;6128;59.340;18.040;2023-04-26T11:45:48;10.90;99.90
12130;DHT22;6128;59.340;18.040;2023-04-26T11:48:17;11.00;99.90
12130;DHT22;6128;59.340;18.040;2023-04-26T11:50:45;11.10;99.90
12130;DHT22;6128;59.340;18.040;2023-04-26T11:53:12;11.20;99.90
12130;DHT22;6128;59.340;18.040;2023-04-26T11:55:39;11.20;99.90
12130;DHT22;6128;59.340;18.040;2023-04-26T11:58:11;11.20;99.90
12130;DHT22;6128;59.340;18.040;2023-04-26T12:00:56;10.90;99.90
12130;DHT22;6128;59.340;18.040;2023-04-26T12:03:28;10.80;99.90
12130;DHT22;6128;59.340;18.040;2023-04-26T12:05:55;10.80;99.90
12130;DHT22;6128;59.340;18.040;2023-04-26T12:08:26;10.80;99.90
12130;DHT22;6128;59.340;18.040;2023-04-26T12:10:55;10.80;99.90
12130;DHT22;6128;59.340;18.040;2023-04-26T12:13:24;10.80;99.90
12130;DHT22;6128;59.340;18.040;2023-04-26T12:15:52;10.90;99.90
12130;DHT22;6128;59.340;18.040;2023-04-26T12:18:19;10.90;99.90
12130;DHT22;6128;59.340;18.040;2023-04-26T12:20:47;11.00;99.90
12130;DHT22;6128;59.340;18.040;2023-04-26T12:23:16;10.90;99.90
12130;DHT22;6128;59.340;18.040;2023-04-26T12:25:51;10.90;99.90
12130;DHT22;6128;59.340;18.040;2023-04-26T12:28:20;11.00;99.90
12130;DHT22;6128;59.340;18.040;2023-04-26T12:30:47;11.20;99.90
12130;DHT22;6128;59.340;18.040;2023-04-26T12:33:15;11.30;99.90
12130;DHT22;6128;59.340;18.040;2023-04-26T12:35:45;11.40;99.90
12130;DHT22;6128;59.340;18.040;2023-04-26T12:38:13;11.50;99.90
12130;DHT22;6128;59.340;18.040;2023-04-26T12:40:41;11.40;99.90
12130;DHT22;6128;59.340;18.040;2023-04-26T12:43:09;11.40;99.90
12130;DHT22;6128;59.340;18.040;2023-04-26T12:45:36;11.40;99.90
12130;DHT22;6128;59.340;18.040;2023-04-26T12:48:03;11.50;99.90
12130;DHT22;6128;59.340;18.040;2023-04-26T12:50:31;11.50;99.90
12130;DHT22;6128;59.340;18.040;2023-04-26T12:52:58;11.40;99.90
12130;DHT22;6128;59.340;18.040;2023-04-26T12:55:27;11.10;99.90
12130;DHT22;6128;59.340;18.040;2023-04-26T12:57:54;11.10;99.90
12130;DHT22;6128;59.340;18.040;2023-04-26T13:00:22;11.30;99.90
12130;DHT22;6128;59.340;18.040;2023-04-26T13:02:50;11.20;99.90
12130;DHT22;6128;59.340;18.040;2023-04-26T13:05:17;11.00;99.90
12130;DHT22;6128;59.340;18.040;2023-04-26T13:07:45;10.90;99.90
12130;DHT22;6128;59.340;18.040;2023-04-26T13:10:12;10.90;99.90
12130;DHT22;6128;59.340;18.040;2023-04-26T13:12:41;11.00;99.90
12130;DHT22;6128;59.340;18.040;2023-04-26T13:15:09;11.30;99.90
12130;DHT22;6128;59.340;18.040;2023-04-26T13:17:36;11.60;99.90
12130;DHT22;6128;59.340;18.040;2023-04-26T13:20:05;11.90;99.90
12130;DHT22;6128;59.340;18.040;2023-04-26T13:22:33;12.00;99.90
12130;DHT22;6128;59.340;18.040;2023-04-26T13:25:00;12.10;99.90
12130;DHT22;6128;59.340;18.040;2023-04-26T13:27:28;12.00;99.90
12130;DHT22;6128;59.340;18.040;2023-04-26T13:29:56;12.00;99.90
12130;DHT22;6128;59.340;18.040;2023-04-26T13:32:24;11.80;99.90
12130;DHT22;6128;59.340;18.040;2023-04-26T13:34:51;11.60;99.90
12130;DHT22;6128;59.340;18.040;2023-04-26T13:37:19;11.50;99.90
12130;DHT22;6128;59.340;18.040;2023-04-26T13:39:46;11.50;99.90
12130;DHT22;6128;59.340;18.040;2023-04-26T13:42:14;11.50;99.90
12130;DHT22;6128;59.340;18.040;2023-04-26T13:44:41;11.50;99.90
12130;DHT22;6128;59.340;18.040;2023-04-26T13:47:10;11.50;99.90
12130;DHT22;6128;59.340;18.040;2023-04-26T13:49:37;11.50;99.90
12130;DHT22;6128;59.340;18.040;2023-04-26T13:52:05;11.60;99.90
12130;DHT22;6128;59.340;18.040;2023-04-26T13:54:33;11.50;99.90
12130;DHT22;6128;59.340;18.040;2023-04-26T13:57:01;11.50;99.90
12130;DHT22;6128;59.340;18.040;2023-04-26T13:59:28;11.40;99.90
12130;DHT22;6128;59.340;18.040;2023-04-26T14:01:55;11.50;99.90
12130;DHT22;6128;59.340;18.040;2023-04-26T14:04:24;11.70;99.90
12130;DHT22;6128;59.340;18.040;2023-04-26T14:06:51;11.80;99.90
12130;DHT22;6128;59.340;18.040;2023-04-26T14:09:18;11.90;99.90
12130;DHT22;6128;59.340;18.040;2023-04-26T14:11:45;12.00;99.90
12130;DHT22;6128;59.340;18.040;2023-04-26T14:14:12;11.90;99.90
12130;DHT22;6128;59.340;18.040;2023-04-26T14:16:40;11.70;99.90
12130;DHT22;6128;59.340;18.040;2023-04-26T14:19:07;11.50;99.40
12130;DHT22;6128;59.340;18.040;2023-04-26T14:21:36;11.40;99.20
12130;DHT22;6128;59.340;18.040;2023-04-26T14:24:03;11.30;98.90
12130;DHT22;6128;59.340;18.040;2023-04-26T14:26:31;11.30;98.70
12130;DHT22;6128;59.340;18.040;2023-04-26T14:28:58;11.40;98.40
12130;DHT22;6128;59.340;18.040;2023-04-26T14:31:25;11.40;98.20
12130;DHT22;6128;59.340;18.040;2023-04-26T14:33:52;11.50;98.30
12130;DHT22;6128;59.340;18.040;2023-04-26T14:36:21;11.30;97.90
12130;DHT22;6128;59.340;18.040;2023-04-26T14:38:49;11.30;97.70
12130;DHT22;6128;59.340;18.040;2023-04-26T14:41:18;11.30;97.30
12130;DHT22;6128;59.340;18.040;2023-04-26T14:43:46;11.20;97.00
12130;DHT22;6128;59.340;18.040;2023-04-26T14:46:13;11.10;96.70
12130;DHT22;6128;59.340;18.040;2023-04-26T14:48:40;11.10;96.60
12130;DHT22;6128;59.340;18.040;2023-04-26T14:51:09;11.00;96.60
12130;DHT22;6128;59.340;18.040;2023-04-26T14:53:37;11.00;96.60
12130;DHT22;6128;59.340;18.040;2023-04-26T14:56:06;11.10;96.60
12130;DHT22;6128;59.340;18.040;2023-04-26T14:58:34;11.30;96.70
12130;DHT22;6128;59.340;18.040;2023-04-26T15:01:01;11.40;96.80
12130;DHT22;6128;59.340;18.040;2023-04-26T15:03:28;11.50;96.80
12130;DHT22;6128;59.340;18.040;2023-04-26T15:05:57;11.60;97.00
12130;DHT22;6128;59.340;18.040;2023-04-26T15:08:24;11.50;97.00
12130;DHT22;6128;59.340;18.040;2023-04-26T15:10:52;11.40;97.10
12130;DHT22;6128;59.340;18.040;2023-04-26T15:13:21;11.10;97.00
12130;DHT22;6128;59.340;18.040;2023-04-26T15:15:48;11.00;96.70
12130;DHT22;6128;59.340;18.040;2023-04-26T15:18:15;10.80;96.30
12130;DHT22;6128;59.340;18.040;2023-04-26T15:20:43;10.70;95.90
12130;DHT22;6128;59.340;18.040;2023-04-26T15:23:10;10.60;95.70
12130;DHT22;6128;59.340;18.040;2023-04-26T15:25:38;10.50;95.30
12130;DHT22;6128;59.340;18.040;2023-04-26T15:28:05;10.50;95.00
12130;DHT22;6128;59.340;18.040;2023-04-26T15:30:33;10.60;95.00
12130;DHT22;6128;59.340;18.040;2023-04-26T15:33:00;10.60;95.10
12130;DHT22;6128;59.340;18.040;2023-04-26T15:35:28;10.60;94.90
12130;DHT22;6128;59.340;18.040;2023-04-26T15:37:55;10.50;94.60
12130;DHT22;6128;59.340;18.040;2023-04-26T15:40:22;10.50;94.50
12130;DHT22;6128;59.340;18.040;2023-04-26T15:42:49;10.50;94.30
12130;DHT22;6128;59.340;18.040;2023-04-26T15:45:17;10.50;94.00
12130;DHT22;6128;59.340;18.040;2023-04-26T15:47:46;10.50;93.80
12130;DHT22;6128;59.340;18.040;2023-04-26T15:50:13;10.50;93.80
12130;DHT22;6128;59.340;18.040;2023-04-26T15:52:41;10.50;93.80
12130;DHT22;6128;59.340;18.040;2023-04-26T15:55:08;10.40;93.60